Etusivu
METAR-TAF:

METAR-TAF

Lentoasemat :

New Orleans, Louisiana, Yhdysvallat

Leveyspiiri: 30-02-58N, Pituuspiiri: 090-01-44W, korkeus merenpinnasta: 2 m

Tämänhetkinen sää

Tämä raportti tehtiin 26 minuuttia sitten, kello 16.53 UTC
Tuuli 5 kn koillisesta
Lämpötila 3°C
Kosteus 60%
Ilmanpaine 1027 hPa
Näkyvyys: 16.1 km
selkeää

METAR: KNEW 131653Z 04005KT 10SM CLR 03/M04 A3033 RMK AO2 SLP265 T00331039 $

Aika: 11:19 (17:19 UTC)

Sääennuste

Tämä raportti tehtiin 5 tuntia ja 25 minuuttia sitten, kello 11.54 UTC
Ennuste voimassa 13. päivästä klo 12 UTC - 14. päivään klo 12 UTC
Tuuli 15 kn pohjoisesta/koillisesta
Näkyvyys: 10 km
selkeää
From 13. päivästä klo 2300 UTC
Tuuli 5 kn idästä/koillisesta
Näkyvyys: 10 km
Hajanaisia pilviä 15000 ft:n korkeudessa
Pilvistä 20000 ft:n korkeudessa

TAF: KNEW 131154Z 1312/1412 02015KT P6SM SKC FM132300 06005KT P6SM SCT150 OVC200

Säähavainnot ja -ennusteet yli 4000 lentoasemalta (METAR- ja TAF-raportit).

Käytössä olevat sääasemat on merkitty karttaan keltaisilla ja punaisilla pisteillä.

Aseta hiiri pisteen päälle nähdäksesi sääaseman nimen.

Klikkaa sitten nähdäksesi säähavainnot ja -ennusteet.

Kartan vaihtaminen: klikkaa mustalla rastilla varustettuja vihreitä pisteitä, niin voit zoomata sisään; viivalla varustettua vihreää pistettä, niin voit zoomata ulos tai vihreitä nuolia, niin pääset viereisille kartoille.


METAR-TAF: